Time;durP1;ratioP1;P1;durP2;ratioP2;P2;SDS_P1;SDS_P2;PMS_P1;PMS_P2;Temp;Humidity;BMP_temperature;BMP_pressure;BME280_temperature;BME280_humidity;BME280_pressure;Samples;Min_cycle;Max_cycle;Signal;HPM_P1;HPM_P2
2022/11/11 00:01:32;;;;;;;5.20;1.40;;;7.80;99.90;;;;;;5079929;28;20029;-69
2022/11/11 00:03:59;;;;;;;4.05;1.85;;;7.70;99.90;;;;;;5080415;28;20435;-68
2022/11/11 00:06:26;;;;;;;3.25;1.35;;;7.70;99.90;;;;;;5079653;28;20305;-68
2022/11/11 00:08:54;;;;;;;4.78;1.25;;;7.80;99.90;;;;;;5080254;28;20024;-68
2022/11/11 00:11:21;;;;;;;5.70;1.98;;;7.80;99.90;;;;;;5079676;28;20028;-68
2022/11/11 00:13:49;;;;;;;15.05;2.00;;;7.80;99.90;;;;;;5079738;28;20024;-68
2022/11/11 00:16:18;;;;;;;4.93;1.30;;;7.90;99.90;;;;;;5061862;28;20051;-68
2022/11/11 00:27:16;;;;;;;7.32;1.73;;;7.90;99.90;;;;;;5079416;28;20066;-68
2022/11/11 00:29:47;;;;;;;5.03;1.08;;;8.00;99.90;;;;;;5079308;28;20036;-68
2022/11/11 00:32:30;;;;;;;9.15;1.70;;;8.00;99.90;;;;;;5079369;28;20024;-68
2022/11/11 00:37:47;;;;;;;3.70;1.20;;;7.90;99.90;;;;;;5078036;28;20035;-68
2022/11/11 00:40:15;;;;;;;3.35;1.80;;;7.90;99.90;;;;;;5078992;28;20024;-68
2022/11/11 00:42:43;;;;;;;6.80;1.55;;;7.90;99.90;;;;;;5079480;28;20074;-68
2022/11/11 00:45:11;;;;;;;5.13;1.65;;;7.90;99.90;;;;;;5079194;28;20035;-68
2022/11/11 00:53:15;;;;;;;5.90;1.30;;;7.90;99.90;;;;;;5079120;28;20032;-68
2022/11/11 00:55:42;;;;;;;5.30;1.25;;;7.80;99.90;;;;;;5078746;28;20443;-69
2022/11/11 00:58:09;;;;;;;6.40;1.58;;;7.80;99.90;;;;;;5060999;28;20036;-68
2022/11/11 01:00:37;;;;;;;4.55;1.20;;;7.80;99.90;;;;;;5079273;28;20020;-68
2022/11/11 01:03:04;;;;;;;6.32;1.50;;;7.80;99.90;;;;;;5078315;28;20053;-68
2022/11/11 01:05:32;;;;;;;7.68;1.30;;;7.80;99.90;;;;;;5078788;28;20012;-68
2022/11/11 01:07:59;;;;;;;6.07;1.50;;;7.70;99.90;;;;;;5060978;28;20028;-68
2022/11/11 01:10:40;;;;;;;5.75;2.03;;;7.70;99.90;;;;;;5079093;28;20017;-68
2022/11/11 01:13:26;;;;;;;4.75;1.40;;;7.70;99.90;;;;;;5078770;28;20103;-68
2022/11/11 01:16:00;;;;;;;6.93;1.67;;;7.70;99.90;;;;;;5078460;28;20079;-68
2022/11/11 01:18:28;;;;;;;8.43;1.40;;;7.70;99.90;;;;;;5079120;28;20116;-68
2022/11/11 01:21:16;;;;;;;3.50;1.38;;;7.70;99.90;;;;;;5079165;28;20312;-69
2022/11/11 01:23:45;;;;;;;7.57;1.10;;;7.60;99.90;;;;;;5060451;28;20032;-68
2022/11/11 01:26:18;;;;;;;4.82;1.55;;;7.60;99.90;;;;;;5078150;28;20024;-68
2022/11/11 01:28:50;;;;;;;7.18;1.20;;;7.60;99.90;;;;;;5078685;28;20031;-68
2022/11/11 01:31:19;;;;;;;6.35;1.52;;;7.60;99.90;;;;;;5078080;28;20439;-68
2022/11/11 01:33:46;;;;;;;10.82;1.52;;;7.60;99.90;;;;;;5078688;28;20032;-68
2022/11/11 01:36:24;;;;;;;4.00;1.17;;;7.60;99.90;;;;;;5060436;28;20025;-68
2022/11/11 01:38:53;;;;;;;4.50;2.28;;;7.60;99.90;;;;;;5077966;28;20043;-68
2022/11/11 01:41:34;;;;;;;6.30;2.05;;;7.60;99.90;;;;;;5077943;28;20057;-68
2022/11/11 01:44:02;;;;;;;5.57;1.50;;;7.60;99.90;;;;;;5077751;28;20306;-68
2022/11/11 01:46:36;;;;;;;4.18;1.70;;;7.60;99.90;;;;;;5078286;28;20048;-68
2022/11/11 01:49:23;;;;;;;5.65;1.70;;;7.60;99.90;;;;;;5077352;28;20028;-68
2022/11/11 01:52:10;;;;;;;4.75;1.23;;;7.60;99.90;;;;;;5059938;28;20368;-68
2022/11/11 01:54:44;;;;;;;7.68;1.77;;;7.60;99.90;;;;;;5078263;28;20028;-68
2022/11/11 01:57:15;;;;;;;4.72;1.27;;;7.50;99.90;;;;;;5059844;28;20037;-68
2022/11/11 01:59:46;;;;;;;6.40;1.70;;;7.50;99.90;;;;;;5077560;28;20027;-68
2022/11/11 02:02:30;;;;;;;6.90;1.35;;;7.40;99.90;;;;;;5077153;28;20059;-69
2022/11/11 02:07:45;;;;;;;3.30;1.13;;;7.30;99.90;;;;;;5077956;28;20496;-68
2022/11/11 02:10:12;;;;;;;6.50;1.40;;;7.30;99.90;;;;;;5077659;28;20489;-68
2022/11/11 02:15:25;;;;;;;5.75;1.20;;;7.20;99.90;;;;;;5077851;28;20086;-68
2022/11/11 02:17:53;;;;;;;4.95;1.30;;;7.20;99.90;;;;;;5059716;28;20025;-68
2022/11/11 02:20:27;;;;;;;4.43;1.80;;;7.20;99.90;;;;;;5077453;28;20021;-68
2022/11/11 02:23:13;;;;;;;4.07;2.17;;;7.20;99.90;;;;;;5077052;28;20092;-68
2022/11/11 02:25:45;;;;;;;6.07;1.10;;;7.30;99.90;;;;;;5077606;28;20099;-68
2022/11/11 02:28:13;;;;;;;4.97;1.20;;;7.30;99.90;;;;;;5078006;28;20020;-69
2022/11/11 02:30:41;;;;;;;4.47;1.48;;;7.30;99.90;;;;;;5077549;28;20030;-68
2022/11/11 02:33:08;;;;;;;4.75;1.30;;;7.30;99.90;;;;;;5077434;28;20025;-69
2022/11/11 02:35:37;;;;;;;6.47;1.38;;;7.40;99.90;;;;;;5059909;28;20304;-68
2022/11/11 02:38:13;;;;;;;6.07;1.52;;;7.40;99.90;;;;;;5077029;28;20024;-68
2022/11/11 02:43:31;;;;;;;4.57;1.42;;;7.40;99.90;;;;;;5077096;28;20115;-68
2022/11/11 02:45:59;;;;;;;2.50;1.10;;;7.40;99.90;;;;;;5076996;28;20032;-68
2022/11/11 02:48:27;;;;;;;5.65;1.63;;;7.40;99.90;;;;;;5076852;28;20020;-68
2022/11/11 02:50:54;;;;;;;4.38;1.20;;;7.40;99.90;;;;;;5058985;28;20055;-68
2022/11/11 02:53:21;;;;;;;4.43;1.30;;;7.40;99.90;;;;;;5076646;28;20055;-69
2022/11/11 02:55:49;;;;;;;4.65;1.33;;;7.40;99.90;;;;;;5059054;28;20029;-68
2022/11/11 02:58:16;;;;;;;5.38;1.30;;;7.30;99.90;;;;;;5076796;28;20432;-68
2022/11/11 03:00:44;;;;;;;3.33;1.20;;;7.20;99.90;;;;;;5076506;28;20416;-68
2022/11/11 03:03:11;;;;;;;5.70;1.30;;;7.10;99.90;;;;;;5076221;28;20321;-68
2022/11/11 03:05:38;;;;;;;3.45;1.23;;;7.20;99.90;;;;;;5076590;28;20051;-68
2022/11/11 03:08:06;;;;;;;7.53;1.60;;;7.10;99.90;;;;;;5076724;28;20024;-68
2022/11/11 03:10:33;;;;;;;4.88;1.50;;;7.10;99.90;;;;;;5076480;28;20020;-68
2022/11/11 03:13:01;;;;;;;2.80;1.00;;;7.10;99.90;;;;;;5076495;28;20420;-68
2022/11/11 03:15:28;;;;;;;7.03;1.75;;;7.00;99.90;;;;;;5076727;28;20024;-69
2022/11/11 03:17:55;;;;;;;6.72;2.13;;;7.00;99.90;;;;;;5076611;28;20021;-69
2022/11/11 03:23:10;;;;;;;8.07;1.13;;;7.00;99.90;;;;;;5076360;28;20035;-68
2022/11/11 03:25:44;;;;;;;5.18;1.48;;;7.00;99.90;;;;;;5076397;28;20019;-69
2022/11/11 03:28:16;;;;;;;4.25;1.40;;;6.90;99.90;;;;;;5076481;28;20066;-68
2022/11/11 03:30:46;;;;;;;4.47;1.40;;;6.90;99.90;;;;;;5076545;28;20017;-69
2022/11/11 03:33:15;;;;;;;5.40;1.30;;;6.80;99.90;;;;;;5076182;28;20462;-68
2022/11/11 03:35:42;;;;;;;6.43;1.38;;;6.70;99.90;;;;;;5076507;28;20070;-68
2022/11/11 03:38:17;;;;;;;6.07;1.48;;;6.70;99.90;;;;;;5076399;28;20112;-69
2022/11/11 03:40:46;;;;;;;5.00;1.42;;;6.70;99.90;;;;;;5076420;28;20033;-69
2022/11/11 03:43:16;;;;;;;3.08;1.30;;;6.60;99.90;;;;;;5076035;28;20035;-68
2022/11/11 03:45:44;;;;;;;3.60;1.35;;;6.60;99.90;;;;;;5076185;28;20023;-69
2022/11/11 03:48:11;;;;;;;4.10;1.27;;;6.60;99.90;;;;;;5076220;28;20024;-69
2022/11/11 03:50:39;;;;;;;7.65;1.25;;;6.60;99.90;;;;;;5076149;28;20017;-69
2022/11/11 03:53:06;;;;;;;4.60;1.20;;;6.60;99.90;;;;;;5076089;28;20320;-68
2022/11/11 03:55:34;;;;;;;4.90;1.48;;;6.70;99.90;;;;;;5058311;28;20420;-68
2022/11/11 03:58:01;;;;;;;5.15;1.50;;;6.80;99.90;;;;;;5076134;28;20335;-69
2022/11/11 04:00:28;;;;;;;4.72;1.10;;;6.90;99.90;;;;;;5058307;28;20028;-68
2022/11/11 04:11:38;;;;;;;5.53;1.02;;;7.60;99.90;;;;;;5044778;28;20020;-69
2022/11/11 04:16:54;;;;;;;2.97;1.20;;;7.70;99.90;;;;;;5079759;28;20328;-69
2022/11/11 04:22:07;;;;;;;4.88;1.70;;;7.90;99.90;;;;;;5080068;28;20327;-69
2022/11/11 04:27:20;;;;;;;4.03;1.20;;;7.90;99.90;;;;;;5079981;28;20027;-69
2022/11/11 04:29:49;;;;;;;5.78;1.40;;;8.00;99.90;;;;;;5079344;28;20043;-69
2022/11/11 04:32:34;;;;;;;6.93;2.28;;;8.00;99.90;;;;;;5079138;28;20051;-69
2022/11/11 04:35:06;;;;;;;10.90;3.77;;;7.90;99.90;;;;;;5079230;28;20028;-68
2022/11/11 04:37:37;;;;;;;6.47;1.58;;;7.90;99.90;;;;;;5061393;28;20487;-69
2022/11/11 04:42:53;;;;;;;4.20;1.60;;;7.70;99.90;;;;;;5079071;28;20032;-69
2022/11/11 04:45:27;;;;;;;10.27;1.77;;;7.60;99.90;;;;;;5079603;28;20020;-69
2022/11/11 04:48:03;;;;;;;5.10;1.58;;;7.50;99.90;;;;;;5079237;28;20099;-69
2022/11/11 04:50:39;;;;;;;6.15;2.50;;;7.50;99.90;;;;;;5061114;28;20020;-68
2022/11/11 04:53:09;;;;;;;;;;;7.50;99.90;;;;;;5079376;28;20036;-69
2022/11/11 04:58:24;;;;;;;4.88;1.33;;;7.40;99.90;;;;;;5079550;28;20027;-69
2022/11/11 05:00:51;;;;;;;3.75;1.20;;;7.40;99.90;;;;;;5078721;28;20051;-68
2022/11/11 05:03:20;;;;;;;2.13;1.20;;;7.40;99.90;;;;;;5074005;28;20167;-69
2022/11/11 05:11:27;;;;;;;4.63;1.33;;;7.50;99.90;;;;;;5059004;28;20028;-68
2022/11/11 05:22:26;;;;;;;2.63;1.30;;;7.50;99.90;;;;;;5058425;28;20443;-69
2022/11/11 05:27:40;;;;;;;7.37;2.17;;;7.50;99.90;;;;;;5072000;28;20447;-69
2022/11/11 05:30:10;;;;;;;4.50;1.45;;;7.50;99.90;;;;;;5058475;28;20028;-68
2022/11/11 05:32:38;;;;;;;6.50;1.83;;;7.50;99.90;;;;;;5057046;28;20025;-69
2022/11/11 05:35:06;;;;;;;3.38;1.55;;;7.40;99.90;;;;;;5058156;28;20017;-68
2022/11/11 05:37:34;;;;;;;3.63;1.40;;;7.40;99.90;;;;;;5058787;28;20052;-69
2022/11/11 05:40:01;;;;;;;4.75;1.77;;;7.30;99.90;;;;;;5058038;28;20386;-69
2022/11/11 05:42:29;;;;;;;4.35;1.50;;;7.20;99.90;;;;;;5057974;28;20100;-69
2022/11/11 05:44:57;;;;;;;4.82;2.03;;;7.10;99.90;;;;;;5057878;28;20025;-69
2022/11/11 05:47:24;;;;;;;5.18;1.27;;;7.10;99.90;;;;;;5057979;28;20028;-68
2022/11/11 05:49:52;;;;;;;4.60;1.33;;;7.00;99.90;;;;;;5057746;28;20021;-69
2022/11/11 05:52:19;;;;;;;5.78;1.85;;;7.00;99.90;;;;;;5056705;28;20025;-69
2022/11/11 05:54:47;;;;;;;3.50;1.65;;;7.00;99.90;;;;;;5057676;28;20025;-68
2022/11/11 05:57:14;;;;;;;6.90;2.10;;;7.00;99.90;;;;;;5057844;28;20042;-68
2022/11/11 05:59:42;;;;;;;4.85;1.48;;;6.90;99.90;;;;;;5057606;28;20023;-69
2022/11/11 06:02:10;;;;;;;6.22;1.63;;;6.90;99.90;;;;;;5072665;28;20115;-69
2022/11/11 06:04:37;;;;;;;4.28;1.92;;;6.80;99.90;;;;;;5073601;28;20294;-68
2022/11/11 06:07:05;;;;;;;4.70;1.83;;;6.80;99.90;;;;;;5056616;28;20041;-69
2022/11/11 06:09:33;;;;;;;3.95;1.60;;;6.70;99.90;;;;;;5057705;28;20405;-69
2022/11/11 06:12:01;;;;;;;6.90;1.73;;;6.70;99.90;;;;;;5057402;28;20013;-68
2022/11/11 06:14:29;;;;;;;6.82;1.80;;;6.60;99.90;;;;;;5056263;28;20032;-69
2022/11/11 06:16:56;;;;;;;7.32;1.92;;;6.50;99.90;;;;;;5057741;28;20028;-68
2022/11/11 06:19:23;;;;;;;5.82;2.28;;;6.50;99.90;;;;;;5057748;28;20025;-68
2022/11/11 06:21:57;;;;;;;5.10;1.85;;;6.40;99.90;;;;;;5057706;28;20034;-69
2022/11/11 06:24:25;;;;;;;4.05;1.50;;;6.30;99.90;;;;;;5057326;28;20056;-68
2022/11/11 06:26:52;;;;;;;9.27;1.90;;;6.30;99.90;;;;;;5073245;28;20075;-69
2022/11/11 06:29:20;;;;;;;5.13;2.05;;;6.30;99.90;;;;;;5056025;28;20028;-69
2022/11/11 06:31:47;;;;;;;4.50;1.55;;;6.20;99.90;;;;;;5055906;28;20155;-69
2022/11/11 06:34:15;;;;;;;2.83;1.52;;;6.10;99.90;;;;;;5072577;28;20025;-69
2022/11/11 06:36:43;;;;;;;5.88;1.95;;;6.10;99.90;;;;;;5071511;28;20075;-69
2022/11/11 06:39:11;;;;;;;5.25;1.88;;;6.10;99.90;;;;;;5057082;28;20087;-69
2022/11/11 06:41:40;;;;;;;5.22;1.98;;;6.10;99.90;;;;;;5056794;28;20096;-69
2022/11/11 06:44:07;;;;;;;4.43;2.03;;;6.10;99.90;;;;;;5056783;28;20024;-69
2022/11/11 06:46:34;;;;;;;4.93;1.88;;;6.10;99.90;;;;;;5057122;28;20100;-69
2022/11/11 06:49:02;;;;;;;5.53;1.90;;;6.20;99.90;;;;;;5057446;28;20472;-69
2022/11/11 06:51:30;;;;;;;10.50;4.68;;;6.20;99.90;;;;;;5055611;28;20063;-74
2022/11/11 06:53:57;;;;;;;10.10;3.30;;;6.20;99.90;;;;;;5055694;28;20049;-73
2022/11/11 06:56:25;;;;;;;6.25;2.97;;;6.20;99.90;;;;;;5056927;28;20024;-72
2022/11/11 06:58:52;;;;;;;4.78;2.15;;;6.30;99.90;;;;;;5057069;28;20025;-72
2022/11/11 07:01:19;;;;;;;9.07;2.03;;;6.30;99.90;;;;;;5056741;28;20021;-72
2022/11/11 07:03:46;;;;;;;9.02;2.20;;;6.30;99.90;;;;;;5076814;28;20078;-72
2022/11/11 07:06:13;;;;;;;5.93;1.77;;;6.40;99.90;;;;;;5076472;28;20074;-72
2022/11/11 07:08:43;;;;;;;3.25;1.58;;;6.40;99.90;;;;;;5076815;28;20038;-72
2022/11/11 07:11:11;;;;;;;5.28;2.63;;;6.50;99.90;;;;;;5076444;28;20439;-72
2022/11/11 07:13:38;;;;;;;8.75;2.38;;;6.50;99.90;;;;;;5076488;28;20024;-72
2022/11/11 07:16:05;;;;;;;5.72;2.65;;;6.60;99.90;;;;;;5076570;28;20020;-76
2022/11/11 07:18:33;;;;;;;6.70;2.38;;;6.70;99.90;;;;;;5076462;28;20476;-78
2022/11/11 07:21:00;;;;;;;6.30;1.73;;;6.80;99.90;;;;;;5076974;28;20029;-76
2022/11/11 07:23:27;;;;;;;5.13;1.70;;;6.80;99.90;;;;;;5076529;28;20051;-75
2022/11/11 07:25:54;;;;;;;8.68;2.20;;;6.80;99.90;;;;;;5076658;28;20294;-74
2022/11/11 07:28:21;;;;;;;4.63;1.90;;;6.90;99.90;;;;;;5075331;28;20419;-74
2022/11/11 07:30:49;;;;;;;6.53;2.17;;;6.90;99.90;;;;;;5076652;28;20078;-74
2022/11/11 07:33:17;;;;;;;5.65;1.80;;;7.00;99.90;;;;;;5076466;28;20327;-74
2022/11/11 07:35:44;;;;;;;4.85;2.17;;;7.00;99.90;;;;;;5076867;28;20024;-74
2022/11/11 07:38:11;;;;;;;4.15;1.70;;;7.10;99.90;;;;;;5076530;28;20031;-74
2022/11/11 07:40:38;;;;;;;10.80;2.00;;;7.20;99.90;;;;;;5076569;28;20031;-73
2022/11/11 07:43:06;;;;;;;5.50;1.60;;;7.20;99.90;;;;;;5076845;28;20052;-74
2022/11/11 07:45:34;;;;;;;5.70;1.73;;;7.20;99.90;;;;;;5076192;28;20020;-70
2022/11/11 07:48:03;;;;;;;5.88;1.88;;;7.20;99.90;;;;;;5060912;28;20028;-73
2022/11/11 07:50:30;;;;;;;4.03;1.85;;;7.20;99.90;;;;;;5062331;28;20324;-69
2022/11/11 07:52:59;;;;;;;5.40;2.13;;;7.30;99.90;;;;;;5062471;28;20020;-69
2022/11/11 07:55:26;;;;;;;6.80;1.67;;;7.30;99.90;;;;;;5062247;28;20094;-70
2022/11/11 07:57:54;;;;;;;4.82;1.80;;;7.40;99.90;;;;;;5079957;28;20117;-76
2022/11/11 08:00:22;;;;;;;4.55;1.52;;;7.50;99.90;;;;;;5079881;28;20096;-68
2022/11/11 08:02:49;;;;;;;6.68;1.95;;;7.50;99.90;;;;;;5079603;28;20060;-69
2022/11/11 08:05:16;;;;;;;2.50;1.17;;;7.60;99.90;;;;;;5079402;28;20078;-69
2022/11/11 08:07:44;;;;;;;5.13;1.75;;;7.60;99.90;;;;;;5080304;28;20392;-69
2022/11/11 08:10:12;;;;;;;4.25;1.65;;;7.60;99.90;;;;;;5062686;28;20025;-69
2022/11/11 08:15:24;;;;;;;3.25;1.35;;;7.70;99.90;;;;;;5079647;28;20023;-70
2022/11/11 08:17:52;;;;;;;3.95;1.52;;;7.70;99.90;;;;;;5079648;28;20095;-71
2022/11/11 08:20:19;;;;;;;4.60;1.45;;;7.80;99.90;;;;;;5079696;28;20035;-71
2022/11/11 08:22:46;;;;;;;4.35;1.35;;;7.80;99.90;;;;;;5079399;28;20021;-71
2022/11/11 08:25:14;;;;;;;4.60;1.27;;;7.90;99.90;;;;;;5079381;28;20021;-71
2022/11/11 08:27:42;;;;;;;5.07;1.15;;;8.00;99.90;;;;;;5079606;28;20055;-71
2022/11/11 08:30:11;;;;;;;5.65;1.55;;;8.10;99.90;;;;;;5079908;28;20436;-71
2022/11/11 08:32:38;;;;;;;3.80;1.50;;;8.20;99.90;;;;;;5079584;28;20021;-70
2022/11/11 08:35:06;;;;;;;4.43;1.92;;;8.30;99.90;;;;;;5079189;28;20048;-71
2022/11/11 08:37:33;;;;;;;4.47;1.67;;;8.40;99.90;;;;;;5079560;28;20044;-69
2022/11/11 08:40:01;;;;;;;5.72;1.50;;;8.50;99.90;;;;;;5078142;28;20024;-69
2022/11/11 08:42:29;;;;;;;3.35;1.10;;;8.60;99.90;;;;;;5079794;28;20017;-69
2022/11/11 08:44:57;;;;;;;4.07;1.20;;;8.70;99.90;;;;;;5078981;28;20159;-69
2022/11/11 08:47:24;;;;;;;2.95;1.10;;;8.80;99.90;;;;;;5079078;28;20101;-69
2022/11/11 08:49:52;;;;;;;2.45;1.20;;;9.00;99.90;;;;;;5079517;28;20039;-70
2022/11/11 08:52:19;;;;;;;2.03;1.15;;;9.10;99.90;;;;;;5061352;28;20333;-68
2022/11/11 08:54:47;;;;;;;7.05;1.33;;;9.20;99.90;;;;;;5078897;28;20025;-68
2022/11/11 08:57:15;;;;;;;4.57;1.63;;;9.30;99.90;;;;;;5079444;28;20108;-68
2022/11/11 08:59:43;;;;;;;2.97;1.33;;;9.50;99.90;;;;;;5077634;28;20021;-68
2022/11/11 09:02:15;;;;;;;3.10;1.38;;;9.60;99.90;;;;;;5078544;28;20068;-68
2022/11/11 09:04:42;;;;;;;2.97;1.30;;;9.80;99.90;;;;;;5078654;28;20033;-68
2022/11/11 09:07:11;;;;;;;3.95;1.15;;;9.90;99.90;;;;;;5079212;28;20017;-68
2022/11/11 09:09:39;;;;;;;4.03;1.55;;;10.00;99.90;;;;;;5078630;28;20016;-68
2022/11/11 09:12:06;;;;;;;3.22;1.30;;;10.10;99.90;;;;;;5077712;28;20416;-68
2022/11/11 09:14:33;;;;;;;4.55;1.65;;;10.10;99.90;;;;;;5078484;28;20035;-68
2022/11/11 09:17:01;;;;;;;3.35;1.40;;;10.20;99.90;;;;;;5078723;28;20032;-68
2022/11/11 09:19:28;;;;;;;2.55;1.27;;;10.30;99.90;;;;;;5078440;28;20028;-68
2022/11/11 09:21:56;;;;;;;4.68;1.70;;;10.30;99.90;;;;;;5078701;28;20037;-72
2022/11/11 09:24:24;;;;;;;4.97;1.20;;;10.40;99.90;;;;;;5078846;28;20021;-68
2022/11/11 09:26:51;;;;;;;1.95;1.30;;;10.40;99.90;;;;;;5078290;28;20096;-68
2022/11/11 09:29:19;;;;;;;5.35;1.27;;;10.50;99.90;;;;;;5078270;28;20024;-69
2022/11/11 09:31:47;;;;;;;2.72;1.20;;;10.60;99.90;;;;;;5078471;28;20095;-70
2022/11/11 09:34:14;;;;;;;3.05;1.27;;;10.60;99.90;;;;;;5078689;28;20073;-68
2022/11/11 09:36:41;;;;;;;1.70;0.80;;;10.70;99.90;;;;;;5078627;28;20031;-68
2022/11/11 09:39:09;;;;;;;4.00;1.13;;;10.80;99.90;;;;;;5077963;28;20029;-69
2022/11/11 09:41:42;;;;;;;4.57;1.00;;;10.90;99.90;;;;;;5077961;28;20481;-70
2022/11/11 09:44:40;;;;;;;1.98;0.95;;;10.90;99.90;;;;;;5077825;28;20036;-70
2022/11/11 09:47:18;;;;;;;2.55;0.90;;;11.10;99.90;;;;;;5061656;28;20037;-71
2022/11/11 09:49:58;;;;;;;4.22;0.90;;;11.20;99.90;;;;;;5077693;28;20439;-71
2022/11/11 09:52:55;;;;;;;1.48;0.80;;;11.20;99.90;;;;;;5078341;28;20083;-71
2022/11/11 09:55:44;;;;;;;3.72;0.85;;;11.30;99.90;;;;;;5078229;28;20025;-70
2022/11/11 09:58:45;;;;;;;5.30;1.27;;;11.40;99.90;;;;;;5077117;28;20035;-70
2022/11/11 10:01:25;;;;;;;2.50;0.75;;;11.40;99.90;;;;;;5059664;28;20332;-70
2022/11/11 10:04:17;;;;;;;2.05;0.88;;;11.50;99.90;;;;;;5078046;28;20041;-71
2022/11/11 10:06:49;;;;;;;2.65;1.15;;;11.50;99.90;;;;;;5059724;28;20439;-70
2022/11/11 10:09:43;;;;;;;1.95;0.98;;;11.50;99.90;;;;;;5077556;28;20029;-70
2022/11/11 10:12:17;;;;;;;2.03;0.70;;;11.60;99.90;;;;;;5077381;28;20091;-70
2022/11/11 10:14:51;;;;;;;3.38;0.73;;;11.60;99.90;;;;;;5077883;28;20021;-70
2022/11/11 10:17:40;;;;;;;2.40;0.85;;;11.70;99.90;;;;;;5076282;28;20115;-71
2022/11/11 10:20:28;;;;;;;4.78;1.30;;;11.80;99.90;;;;;;5077522;28;20359;-70
2022/11/11 10:23:15;;;;;;;2.97;1.00;;;11.90;99.90;;;;;;5077125;28;20080;-70
2022/11/11 10:25:52;;;;;;;;;;;11.90;99.90;;;;;;5077516;28;20023;-71
2022/11/11 10:28:24;;;;;;;4.30;1.23;;;11.90;99.90;;;;;;5059547;28;19916;-70
2022/11/11 10:30:52;;;;;;;3.03;1.85;;;12.00;99.90;;;;;;5059284;28;20024;-70
2022/11/11 10:33:38;;;;;;;2.67;0.85;;;12.00;99.90;;;;;;5077460;28;20103;-70
2022/11/11 10:36:13;;;;;;;2.38;0.88;;;12.00;99.90;;;;;;5077517;28;20025;-71
2022/11/11 10:38:59;;;;;;;3.75;1.00;;;12.00;99.90;;;;;;5077191;28;20104;-70
2022/11/11 10:41:47;;;;;;;3.20;0.88;;;12.00;99.90;;;;;;5076914;28;20016;-70
2022/11/11 10:44:33;;;;;;;3.90;1.02;;;12.10;99.90;;;;;;5058807;28;20028;-69
2022/11/11 10:47:39;;;;;;;5.05;0.90;;;12.20;99.90;;;;;;5077169;28;20024;-70
2022/11/11 10:50:12;;;;;;;3.35;0.90;;;12.30;99.90;;;;;;5015195;28;20037;-71
2022/11/11 10:52:48;;;;;;;3.03;1.08;;;12.50;99.90;;;;;;5067182;28;20086;-71
2022/11/11 10:55:44;;;;;;;2.22;0.82;;;12.60;99.90;;;;;;5075624;28;20024;-71
2022/11/11 10:59:03;;;;;;;2.92;1.30;;;12.70;99.90;;;;;;5074021;28;20070;-70
2022/11/11 11:01:43;;;;;;;3.70;1.38;;;12.80;99.90;;;;;;5042879;28;20043;-70
2022/11/11 11:04:36;;;;;;;2.25;0.98;;;12.80;99.90;;;;;;5076433;28;20036;-71
2022/11/11 11:07:06;;;;;;;4.32;1.30;;;12.80;99.90;;;;;;5076480;28;20028;-70
2022/11/11 11:10:00;;;;;;;1.60;0.93;;;12.80;99.90;;;;;;5077166;28;20017;-70
2022/11/11 11:12:39;;;;;;;1.55;0.70;;;12.80;99.90;;;;;;5076500;28;20032;-71
2022/11/11 11:15:20;;;;;;;5.35;1.27;;;12.80;99.90;;;;;;5076510;28;20016;-69
2022/11/11 11:17:58;;;;;;;2.75;1.08;;;12.80;99.90;;;;;;5076595;28;20013;-70
2022/11/11 11:20:26;;;;;;;3.78;0.82;;;12.80;99.90;;;;;;5076714;28;20020;-68
2022/11/11 11:22:57;;;;;;;3.30;0.75;;;12.80;99.90;;;;;;5081332;28;20020;-71
2022/11/11 11:25:32;;;;;;;2.45;0.75;;;12.80;99.90;;;;;;5082835;28;20320;-71
2022/11/11 11:28:13;;;;;;;2.28;1.02;;;12.80;99.90;;;;;;5083175;28;20208;-70
2022/11/11 11:30:58;;;;;;;4.75;1.20;;;12.80;99.90;;;;;;5083530;28;20023;-69
2022/11/11 11:33:26;;;;;;;2.30;1.02;;;12.90;99.90;;;;;;5083332;28;20021;-70
2022/11/11 11:35:53;;;;;;;3.10;0.98;;;13.00;99.90;;;;;;5083518;28;20029;-68
2022/11/11 11:38:41;;;;;;;5.13;0.98;;;13.00;99.90;;;;;;5083184;28;20024;-70
2022/11/11 11:41:08;;;;;;;1.60;0.75;;;13.00;99.90;;;;;;5082895;28;20447;-69
2022/11/11 11:43:37;;;;;;;4.15;0.90;;;13.10;99.90;;;;;;5083423;28;20031;-70
2022/11/11 11:46:14;;;;;;;1.98;0.60;;;13.10;99.90;;;;;;5082816;28;20428;-71
2022/11/11 11:49:04;;;;;;;4.32;0.77;;;13.10;99.90;;;;;;5083833;28;20106;-70
2022/11/11 11:51:48;;;;;;;1.20;0.68;;;13.20;99.90;;;;;;5083350;28;20040;-71
2022/11/11 11:54:38;;;;;;;2.33;0.60;;;13.20;99.90;;;;;;5083337;28;20150;-70
2022/11/11 11:57:21;;;;;;;3.95;0.80;;;13.30;99.90;;;;;;5083761;28;20028;-69
2022/11/11 12:00:05;;;;;;;1.33;0.82;;;13.30;99.90;;;;;;5083318;28;20085;-71
2022/11/11 12:02:58;;;;;;;2.15;0.80;;;13.40;99.90;;;;;;5082651;28;20044;-68
2022/11/11 12:05:43;;;;;;;3.00;1.60;;;13.50;99.90;;;;;;5083213;28;20035;-69
2022/11/11 12:08:40;;;;;;;3.20;1.35;;;13.50;99.90;;;;;;5083397;28;20021;-69
2022/11/11 12:11:24;;;;;;;1.30;0.63;;;13.60;99.90;;;;;;5083228;28;20047;-70
2022/11/11 12:14:16;;;;;;;8.65;0.82;;;13.70;99.90;;;;;;5083402;28;20025;-69
2022/11/11 12:16:58;;;;;;;4.35;0.82;;;13.80;99.90;;;;;;5064857;28;20027;-71
2022/11/11 12:19:44;;;;;;;2.13;0.75;;;13.80;99.90;;;;;;5083131;28;20025;-77
2022/11/11 12:22:46;;;;;;;1.65;0.90;;;13.90;99.90;;;;;;5064767;28;20387;-70
2022/11/11 12:25:32;;;;;;;2.20;0.57;;;14.00;99.90;;;;;;5083053;28;20052;-70
2022/11/11 12:28:37;;;;;;;2.97;1.17;;;14.00;99.90;;;;;;5064934;28;20377;-70
2022/11/11 12:31:14;;;;;;;1.63;0.60;;;14.00;99.90;;;;;;5082692;28;20031;-70
2022/11/11 12:33:42;;;;;;;4.65;0.50;;;14.00;99.90;;;;;;5080762;28;20024;-70
2022/11/11 12:36:38;;;;;;;1.13;0.60;;;14.00;99.90;;;;;;5061486;28;20054;-70
2022/11/11 12:39:45;;;;;;;1.33;0.50;;;14.10;99.90;;;;;;5079307;28;20028;-70
2022/11/11 12:42:40;;;;;;;1.73;0.52;;;14.10;99.90;;;;;;5079455;28;20142;-70
2022/11/11 12:45:51;;;;;;;2.47;0.60;;;14.10;99.90;;;;;;5079032;28;20038;-69
2022/11/11 12:48:29;;;;;;;2.10;0.63;;;14.10;99.90;;;;;;5065754;28;20033;-70
2022/11/11 12:51:16;;;;;;;1.50;0.60;;;14.20;99.90;;;;;;5079693;28;20115;-69
2022/11/11 12:54:13;;;;;;;1.90;0.82;;;14.20;99.90;;;;;;5079665;28;20119;-69
2022/11/11 12:57:02;;;;;;;6.50;0.90;;;14.20;99.90;;;;;;5078898;28;20026;-69
2022/11/11 13:00:00;;;;;;;2.53;0.47;;;14.20;99.90;;;;;;5078793;28;20420;-70
2022/11/11 13:03:01;;;;;;;1.83;0.52;;;14.20;99.90;;;;;;5078870;28;20118;-70
2022/11/11 13:05:48;;;;;;;1.92;0.65;;;14.20;99.90;;;;;;5079052;28;20036;-70
2022/11/11 13:08:28;;;;;;;2.65;0.82;;;14.20;99.90;;;;;;5079271;28;20033;-70
2022/11/11 13:11:03;;;;;;;3.05;0.80;;;14.20;99.90;;;;;;5079207;28;20118;-70
2022/11/11 13:14:00;;;;;;;4.80;0.98;;;14.20;99.90;;;;;;5078633;28;20032;-69
2022/11/11 13:16:28;;;;;;;5.60;2.00;;;14.30;99.90;;;;;;5078350;28;20476;-69
2022/11/11 13:19:25;;;;;;;4.25;1.45;;;14.20;99.90;;;;;;5079120;28;20024;-69
2022/11/11 13:22:20;;;;;;;6.60;2.55;;;14.30;99.90;;;;;;5055352;28;20339;-69
2022/11/11 13:24:54;;;;;;;2.92;0.98;;;14.30;99.90;;;;;;5078181;28;20028;-69
2022/11/11 13:27:29;;;;;;;6.07;2.33;;;14.20;99.90;;;;;;5078614;28;20017;-69
2022/11/11 13:30:07;;;;;;;2.90;1.10;;;14.20;99.90;;;;;;5078284;28;20023;-69
2022/11/11 13:32:46;;;;;;;4.80;2.13;;;14.20;99.90;;;;;;5078287;28;20069;-68
2022/11/11 13:35:32;;;;;;;1.52;0.82;;;14.20;99.90;;;;;;5078050;28;20101;-68
2022/11/11 13:37:59;;;;;;;4.78;1.35;;;14.20;99.90;;;;;;5078714;28;20052;-69
2022/11/11 13:40:41;;;;;;;1.02;0.60;;;14.20;99.90;;;;;;5078824;28;20017;-68
2022/11/11 13:43:30;;;;;;;2.55;0.90;;;14.20;99.90;;;;;;5078080;28;20419;-68
2022/11/11 13:46:00;;;;;;;2.33;0.73;;;14.20;99.90;;;;;;5077437;28;20021;-69
2022/11/11 13:48:46;;;;;;;2.28;0.90;;;14.20;99.90;;;;;;5060201;28;20182;-69
2022/11/11 13:51:19;;;;;;;2.60;0.85;;;14.20;99.90;;;;;;5077826;28;20439;-68
2022/11/11 13:53:48;;;;;;;3.95;0.82;;;14.20;99.90;;;;;;5078278;28;20356;-68
2022/11/11 13:56:48;;;;;;;1.55;0.60;;;14.20;99.90;;;;;;5077701;28;20024;-68
2022/11/11 13:59:27;;;;;;;2.13;0.80;;;14.20;99.90;;;;;;5044912;28;20357;-69
2022/11/11 14:02:19;;;;;;;3.63;0.90;;;14.20;99.90;;;;;;5077220;28;20052;-69
2022/11/11 14:05:05;;;;;;;2.88;0.70;;;14.20;99.90;;;;;;5078037;28;20028;-68
2022/11/11 14:07:48;;;;;;;1.92;0.70;;;14.20;99.90;;;;;;5078254;28;20066;-69
2022/11/11 14:10:20;;;;;;;2.47;0.68;;;14.10;99.90;;;;;;5077990;28;20376;-69
2022/11/11 14:12:52;;;;;;;1.90;0.80;;;14.10;99.90;;;;;;5059600;28;20023;-68
2022/11/11 14:15:41;;;;;;;2.47;0.90;;;14.10;99.90;;;;;;5077875;28;20021;-68
2022/11/11 14:18:17;;;;;;;1.90;0.88;;;14.00;99.90;;;;;;5077481;28;20320;-68
2022/11/11 14:20:48;;;;;;;1.67;0.70;;;14.00;99.90;;;;;;5077844;28;20024;-68
2022/11/11 14:23:16;;;;;;;1.00;0.52;;;14.00;99.90;;;;;;5077129;28;20075;-69
2022/11/11 14:25:44;;;;;;;1.67;0.65;;;13.90;99.90;;;;;;5077661;28;20338;-68
2022/11/11 14:28:28;;;;;;;1.50;0.80;;;13.90;99.90;;;;;;5077251;28;20017;-69
2022/11/11 14:31:12;;;;;;;3.30;1.77;;;13.80;99.90;;;;;;5077606;28;20126;-68
2022/11/11 14:34:09;;;;;;;4.70;1.63;;;13.80;99.90;;;;;;5059428;28;20024;-69
2022/11/11 14:36:50;;;;;;;8.35;1.88;;;13.70;99.90;;;;;;5059403;28;20037;-69
2022/11/11 14:39:50;;;;;;;7.32;1.65;;;13.60;99.90;;;;;;5076915;28;20097;-69